sensor_id;sensor_type;location;lat;lon;timestamp;temperature;humidity
13796;SHT30;40911;51.552;9.874;2023-02-21T00:02:23;8.17;96.56
13796;SHT30;40911;51.552;9.874;2023-02-21T00:05:02;8.14;97.05
13796;SHT30;40911;51.552;9.874;2023-02-21T00:07:41;8.14;96.82
13796;SHT30;40911;51.552;9.874;2023-02-21T00:10:20;8.16;96.73
13796;SHT30;40911;51.552;9.874;2023-02-21T00:13:01;8.13;96.93
13796;SHT30;40911;51.552;9.874;2023-02-21T00:15:40;8.14;96.64
13796;SHT30;40911;51.552;9.874;2023-02-21T00:18:19;8.17;96.60
13796;SHT30;40911;51.552;9.874;2023-02-21T00:20:59;8.16;96.75
13796;SHT30;40911;51.552;9.874;2023-02-21T00:23:38;8.14;96.73
13796;SHT30;40911;51.552;9.874;2023-02-21T00:26:17;8.21;96.36
13796;SHT30;40911;51.552;9.874;2023-02-21T00:28:58;8.18;96.52
13796;SHT30;40911;51.552;9.874;2023-02-21T00:31:37;8.14;96.77
13796;SHT30;40911;51.552;9.874;2023-02-21T00:34:16;8.17;96.92
13796;SHT30;40911;51.552;9.874;2023-02-21T00:36:55;8.16;96.65
13796;SHT30;40911;51.552;9.874;2023-02-21T00:39:34;8.21;96.24
13796;SHT30;40911;51.552;9.874;2023-02-21T00:42:13;8.20;96.56
13796;SHT30;40911;51.552;9.874;2023-02-21T00:44:53;8.20;96.43
13796;SHT30;40911;51.552;9.874;2023-02-21T00:47:32;8.20;96.22
13796;SHT30;40911;51.552;9.874;2023-02-21T00:50:12;8.21;96.18
13796;SHT30;40911;51.552;9.874;2023-02-21T00:52:51;8.21;96.31
13796;SHT30;40911;51.552;9.874;2023-02-21T00:55:30;8.21;96.09
13796;SHT30;40911;51.552;9.874;2023-02-21T00:58:09;8.23;96.33
13796;SHT30;40911;51.552;9.874;2023-02-21T01:00:49;8.20;96.34
13796;SHT30;40911;51.552;9.874;2023-02-21T01:03:28;8.16;96.44
13796;SHT30;40911;51.552;9.874;2023-02-21T01:06:08;8.21;96.09
13796;SHT30;40911;51.552;9.874;2023-02-21T01:08:48;8.20;96.23
13796;SHT30;40911;51.552;9.874;2023-02-21T01:11:27;8.20;96.57
13796;SHT30;40911;51.552;9.874;2023-02-21T01:14:07;8.20;96.57
13796;SHT30;40911;51.552;9.874;2023-02-21T01:16:48;8.18;96.33
13796;SHT30;40911;51.552;9.874;2023-02-21T01:19:27;8.16;96.92
13796;SHT30;40911;51.552;9.874;2023-02-21T01:22:06;8.21;96.65
13796;SHT30;40911;51.552;9.874;2023-02-21T01:24:47;8.20;96.69
13796;SHT30;40911;51.552;9.874;2023-02-21T01:27:27;8.16;97.15
13796;SHT30;40911;51.552;9.874;2023-02-21T01:30:06;8.16;96.88
13796;SHT30;40911;51.552;9.874;2023-02-21T01:32:47;8.17;97.09
13796;SHT30;40911;51.552;9.874;2023-02-21T01:35:26;8.14;97.32
13796;SHT30;40911;51.552;9.874;2023-02-21T01:38:05;8.14;97.44
13796;SHT30;40911;51.552;9.874;2023-02-21T01:40:44;8.14;97.55
13796;SHT30;40911;51.552;9.874;2023-02-21T01:43:25;8.16;97.53
13796;SHT30;40911;51.552;9.874;2023-02-21T01:46:05;8.17;97.59
13796;SHT30;40911;51.552;9.874;2023-02-21T01:48:48;8.21;97.31
13796;SHT30;40911;51.552;9.874;2023-02-21T01:51:35;8.21;97.72
13796;SHT30;40911;51.552;9.874;2023-02-21T01:54:15;8.17;97.93
13796;SHT30;40911;51.552;9.874;2023-02-21T01:56:58;8.17;97.87
13796;SHT30;40911;51.552;9.874;2023-02-21T01:59:38;8.18;97.79
13796;SHT30;40911;51.552;9.874;2023-02-21T02:02:23;8.23;97.62
13796;SHT30;40911;51.552;9.874;2023-02-21T02:05:07;8.27;97.42
13796;SHT30;40911;51.552;9.874;2023-02-21T02:07:47;8.24;97.37
13796;SHT30;40911;51.552;9.874;2023-02-21T02:10:27;8.25;97.47
13796;SHT30;40911;51.552;9.874;2023-02-21T02:13:24;8.27;97.12
13796;SHT30;40911;51.552;9.874;2023-02-21T02:15:58;8.28;97.04
13796;SHT30;40911;51.552;9.874;2023-02-21T02:18:39;8.28;97.05
13796;SHT30;40911;51.552;9.874;2023-02-21T02:21:26;8.30;96.92
13796;SHT30;40911;51.552;9.874;2023-02-21T02:27:20;8.31;96.78
13796;SHT30;40911;51.552;9.874;2023-02-21T02:30:04;8.31;96.62
13796;SHT30;40911;51.552;9.874;2023-02-21T02:32:41;8.28;96.77
13796;SHT30;40911;51.552;9.874;2023-02-21T02:35:08;8.31;96.74
13796;SHT30;40911;51.552;9.874;2023-02-21T02:37:36;8.28;96.78
13796;SHT30;40911;51.552;9.874;2023-02-21T02:40:08;8.34;96.51
13796;SHT30;40911;51.552;9.874;2023-02-21T02:42:42;8.37;96.44
13796;SHT30;40911;51.552;9.874;2023-02-21T02:45:09;8.38;96.39
13796;SHT30;40911;51.552;9.874;2023-02-21T02:47:36;8.37;96.62
13796;SHT30;40911;51.552;9.874;2023-02-21T02:50:00;8.38;96.50
13796;SHT30;40911;51.552;9.874;2023-02-21T02:52:25;8.44;96.36
13796;SHT30;40911;51.552;9.874;2023-02-21T02:54:57;8.40;96.43
13796;SHT30;40911;51.552;9.874;2023-02-21T02:57:18;8.44;96.53
13796;SHT30;40911;51.552;9.874;2023-02-21T02:59:43;8.45;96.21
13796;SHT30;40911;51.552;9.874;2023-02-21T03:02:36;8.48;96.13
13796;SHT30;40911;51.552;9.874;2023-02-21T03:05:17;8.51;95.84
13796;SHT30;40911;51.552;9.874;2023-02-21T03:07:52;8.58;95.68
13796;SHT30;40911;51.552;9.874;2023-02-21T03:10:20;8.56;95.67
13796;SHT30;40911;51.552;9.874;2023-02-21T03:12:47;8.54;95.75
13796;SHT30;40911;51.552;9.874;2023-02-21T03:15:15;8.55;95.63
13796;SHT30;40911;51.552;9.874;2023-02-21T03:17:40;8.59;95.66
13796;SHT30;40911;51.552;9.874;2023-02-21T03:20:04;8.61;95.53
13796;SHT30;40911;51.552;9.874;2023-02-21T03:22:27;8.63;95.57
13796;SHT30;40911;51.552;9.874;2023-02-21T03:24:52;8.62;95.59
13796;SHT30;40911;51.552;9.874;2023-02-21T03:27:16;8.63;95.59
13796;SHT30;40911;51.552;9.874;2023-02-21T03:29:39;8.63;95.46
13796;SHT30;40911;51.552;9.874;2023-02-21T03:32:05;8.66;95.36
13796;SHT30;40911;51.552;9.874;2023-02-21T03:34:32;8.65;95.50
13796;SHT30;40911;51.552;9.874;2023-02-21T03:36:54;8.65;95.38
13796;SHT30;40911;51.552;9.874;2023-02-21T03:39:16;8.65;95.48
13796;SHT30;40911;51.552;9.874;2023-02-21T03:41:39;8.66;95.73
13796;SHT30;40911;51.552;9.874;2023-02-21T03:44:00;8.63;95.85
13796;SHT30;40911;51.552;9.874;2023-02-21T03:46:22;8.63;96.02
13796;SHT30;40911;51.552;9.874;2023-02-21T03:48:43;8.59;96.17
13796;SHT30;40911;51.552;9.874;2023-02-21T03:51:05;8.59;96.22
13796;SHT30;40911;51.552;9.874;2023-02-21T03:53:27;8.59;96.45
13796;SHT30;40911;51.552;9.874;2023-02-21T03:55:48;8.59;96.55
13796;SHT30;40911;51.552;9.874;2023-02-21T03:58:12;8.55;96.67
13796;SHT30;40911;51.552;9.874;2023-02-21T04:00:33;8.54;96.83
13796;SHT30;40911;51.552;9.874;2023-02-21T04:02:55;8.54;96.81
13796;SHT30;40911;51.552;9.874;2023-02-21T04:05:16;8.52;96.98
13796;SHT30;40911;51.552;9.874;2023-02-21T04:07:38;8.52;97.21
13796;SHT30;40911;51.552;9.874;2023-02-21T04:10:00;8.49;97.45
13796;SHT30;40911;51.552;9.874;2023-02-21T04:12:21;8.48;97.37
13796;SHT30;40911;51.552;9.874;2023-02-21T04:14:44;8.48;97.49
13796;SHT30;40911;51.552;9.874;2023-02-21T04:17:06;8.51;97.37
13796;SHT30;40911;51.552;9.874;2023-02-21T04:19:27;8.51;97.42
13796;SHT30;40911;51.552;9.874;2023-02-21T04:21:49;8.48;97.26
13796;SHT30;40911;51.552;9.874;2023-02-21T04:24:11;8.51;97.33
13796;SHT30;40911;51.552;9.874;2023-02-21T04:26:32;8.46;97.52
13796;SHT30;40911;51.552;9.874;2023-02-21T04:28:55;8.49;97.66
13796;SHT30;40911;51.552;9.874;2023-02-21T04:31:18;8.46;97.52
13796;SHT30;40911;51.552;9.874;2023-02-21T04:33:40;8.49;97.52
13796;SHT30;40911;51.552;9.874;2023-02-21T04:36:01;8.51;97.33
13796;SHT30;40911;51.552;9.874;2023-02-21T04:38:23;8.48;97.66
13796;SHT30;40911;51.552;9.874;2023-02-21T04:40:45;8.48;97.59
13796;SHT30;40911;51.552;9.874;2023-02-21T04:43:06;8.52;97.35
13796;SHT30;40911;51.552;9.874;2023-02-21T04:45:28;8.52;97.28
13796;SHT30;40911;51.552;9.874;2023-02-21T04:47:51;8.54;97.06
13796;SHT30;40911;51.552;9.874;2023-02-21T04:50:12;8.52;97.33
13796;SHT30;40911;51.552;9.874;2023-02-21T04:52:34;8.58;96.81
13796;SHT30;40911;51.552;9.874;2023-02-21T04:54:56;8.61;96.84
13796;SHT30;40911;51.552;9.874;2023-02-21T04:57:17;8.59;96.79
13796;SHT30;40911;51.552;9.874;2023-02-21T04:59:39;8.61;96.58
13796;SHT30;40911;51.552;9.874;2023-02-21T05:02:00;8.58;96.81
13796;SHT30;40911;51.552;9.874;2023-02-21T05:04:23;8.62;96.52
13796;SHT30;40911;51.552;9.874;2023-02-21T05:06:45;8.61;96.57
13796;SHT30;40911;51.552;9.874;2023-02-21T05:09:07;8.62;96.49
13796;SHT30;40911;51.552;9.874;2023-02-21T05:11:31;8.61;96.47
13796;SHT30;40911;51.552;9.874;2023-02-21T05:13:54;8.61;96.51
13796;SHT30;40911;51.552;9.874;2023-02-21T05:16:15;8.63;96.35
13796;SHT30;40911;51.552;9.874;2023-02-21T05:18:37;8.68;96.08
13796;SHT30;40911;51.552;9.874;2023-02-21T05:21:00;8.69;95.80
13796;SHT30;40911;51.552;9.874;2023-02-21T05:23:22;8.73;95.65
13796;SHT30;40911;51.552;9.874;2023-02-21T05:25:53;8.66;95.87
13796;SHT30;40911;51.552;9.874;2023-02-21T05:28:14;8.73;95.68
13796;SHT30;40911;51.552;9.874;2023-02-21T05:30:36;8.77;95.29
13796;SHT30;40911;51.552;9.874;2023-02-21T05:32:57;8.75;95.41
13796;SHT30;40911;51.552;9.874;2023-02-21T05:35:20;8.71;95.58
13796;SHT30;40911;51.552;9.874;2023-02-21T05:37:43;8.72;95.45
13796;SHT30;40911;51.552;9.874;2023-02-21T05:40:05;8.76;95.33
13796;SHT30;40911;51.552;9.874;2023-02-21T05:42:27;8.73;95.39
13796;SHT30;40911;51.552;9.874;2023-02-21T05:44:49;8.69;95.66
13796;SHT30;40911;51.552;9.874;2023-02-21T05:47:11;8.68;95.77
13796;SHT30;40911;51.552;9.874;2023-02-21T05:49:32;8.69;95.51
13796;SHT30;40911;51.552;9.874;2023-02-21T05:51:54;8.66;95.59
13796;SHT30;40911;51.552;9.874;2023-02-21T05:54:19;8.68;95.59
13796;SHT30;40911;51.552;9.874;2023-02-21T05:56:42;8.69;95.46
13796;SHT30;40911;51.552;9.874;2023-02-21T05:59:04;8.69;95.49
13796;SHT30;40911;51.552;9.874;2023-02-21T06:01:26;8.69;95.33
13796;SHT30;40911;51.552;9.874;2023-02-21T06:03:47;8.66;95.49
13796;SHT30;40911;51.552;9.874;2023-02-21T06:06:09;8.63;95.67
13796;SHT30;40911;51.552;9.874;2023-02-21T06:08:31;8.63;95.70
13796;SHT30;40911;51.552;9.874;2023-02-21T06:10:54;8.66;95.32
13796;SHT30;40911;51.552;9.874;2023-02-21T06:13:15;8.66;95.42
13796;SHT30;40911;51.552;9.874;2023-02-21T06:15:37;8.65;95.34
13796;SHT30;40911;51.552;9.874;2023-02-21T06:17:59;8.62;95.75
13796;SHT30;40911;51.552;9.874;2023-02-21T06:20:20;8.63;95.55
13796;SHT30;40911;51.552;9.874;2023-02-21T06:22:42;8.65;95.58
13796;SHT30;40911;51.552;9.874;2023-02-21T06:25:04;8.63;95.25
13796;SHT30;40911;51.552;9.874;2023-02-21T06:27:27;8.62;95.23
13796;SHT30;40911;51.552;9.874;2023-02-21T06:29:49;8.61;95.43
13796;SHT30;40911;51.552;9.874;2023-02-21T06:32:10;8.61;95.52
13796;SHT30;40911;51.552;9.874;2023-02-21T06:34:32;8.63;95.29
13796;SHT30;40911;51.552;9.874;2023-02-21T06:36:54;8.65;95.13
13796;SHT30;40911;51.552;9.874;2023-02-21T06:39:20;8.63;95.22
13796;SHT30;40911;51.552;9.874;2023-02-21T06:42:06;8.68;94.79
13796;SHT30;40911;51.552;9.874;2023-02-21T06:44:29;8.73;94.41
13796;SHT30;40911;51.552;9.874;2023-02-21T06:46:51;8.71;94.63
13796;SHT30;40911;51.552;9.874;2023-02-21T06:49:14;8.75;94.49
13796;SHT30;40911;51.552;9.874;2023-02-21T06:51:36;8.73;94.44
13796;SHT30;40911;51.552;9.874;2023-02-21T06:53:58;8.75;94.43
13796;SHT30;40911;51.552;9.874;2023-02-21T06:56:20;8.75;94.32
13796;SHT30;40911;51.552;9.874;2023-02-21T06:58:42;8.73;94.58
13796;SHT30;40911;51.552;9.874;2023-02-21T07:01:05;8.72;94.53
13796;SHT30;40911;51.552;9.874;2023-02-21T07:03:27;8.72;94.51
13796;SHT30;40911;51.552;9.874;2023-02-21T07:05:49;8.79;94.31
13796;SHT30;40911;51.552;9.874;2023-02-21T07:08:11;8.80;94.22
13796;SHT30;40911;51.552;9.874;2023-02-21T07:10:33;8.80;94.21
13796;SHT30;40911;51.552;9.874;2023-02-21T07:12:54;8.77;94.37
13796;SHT30;40911;51.552;9.874;2023-02-21T07:15:16;8.83;94.16
13796;SHT30;40911;51.552;9.874;2023-02-21T07:17:39;8.82;94.23
13796;SHT30;40911;51.552;9.874;2023-02-21T07:20:01;8.82;94.35
13796;SHT30;40911;51.552;9.874;2023-02-21T07:22:23;8.83;94.37
13796;SHT30;40911;51.552;9.874;2023-02-21T07:24:45;8.90;94.27
13796;SHT30;40911;51.552;9.874;2023-02-21T07:27:07;8.92;94.20
13796;SHT30;40911;51.552;9.874;2023-02-21T07:29:29;8.95;94.13
13796;SHT30;40911;51.552;9.874;2023-02-21T07:31:50;8.92;94.25
13796;SHT30;40911;51.552;9.874;2023-02-21T07:34:13;8.93;94.21
13796;SHT30;40911;51.552;9.874;2023-02-21T07:36:36;8.93;94.13
13796;SHT30;40911;51.552;9.874;2023-02-21T07:38:58;8.90;94.05
13796;SHT30;40911;51.552;9.874;2023-02-21T07:41:19;8.89;94.00
13796;SHT30;40911;51.552;9.874;2023-02-21T07:43:41;8.89;94.10
13796;SHT30;40911;51.552;9.874;2023-02-21T07:46:02;8.90;93.99
13796;SHT30;40911;51.552;9.874;2023-02-21T07:48:24;8.89;94.11
13796;SHT30;40911;51.552;9.874;2023-02-21T07:50:47;8.89;94.00
13796;SHT30;40911;51.552;9.874;2023-02-21T07:53:10;8.92;94.01
13796;SHT30;40911;51.552;9.874;2023-02-21T07:55:31;8.88;94.27
13796;SHT30;40911;51.552;9.874;2023-02-21T07:57:53;8.89;94.25
13796;SHT30;40911;51.552;9.874;2023-02-21T08:00:15;8.92;94.04
13796;SHT30;40911;51.552;9.874;2023-02-21T08:02:37;8.88;94.11
13796;SHT30;40911;51.552;9.874;2023-02-21T08:04:58;8.92;94.23
13796;SHT30;40911;51.552;9.874;2023-02-21T08:07:21;8.90;94.26
13796;SHT30;40911;51.552;9.874;2023-02-21T08:09:44;8.89;94.42
13796;SHT30;40911;51.552;9.874;2023-02-21T08:12:06;8.92;94.37
13796;SHT30;40911;51.552;9.874;2023-02-21T08:14:28;8.90;94.30
13796;SHT30;40911;51.552;9.874;2023-02-21T08:16:49;8.92;94.48
13796;SHT30;40911;51.552;9.874;2023-02-21T08:19:11;8.86;94.39
13796;SHT30;40911;51.552;9.874;2023-02-21T08:21:32;8.86;94.32
13796;SHT30;40911;51.552;9.874;2023-02-21T08:23:55;8.89;94.45
13796;SHT30;40911;51.552;9.874;2023-02-21T08:26:17;8.82;94.60
13796;SHT30;40911;51.552;9.874;2023-02-21T08:28:39;8.85;94.65
13796;SHT30;40911;51.552;9.874;2023-02-21T08:31:00;8.79;95.06
13796;SHT30;40911;51.552;9.874;2023-02-21T08:33:22;8.80;95.26
13796;SHT30;40911;51.552;9.874;2023-02-21T08:35:44;8.80;95.63
13796;SHT30;40911;51.552;9.874;2023-02-21T08:38:05;8.77;95.65
13796;SHT30;40911;51.552;9.874;2023-02-21T08:40:29;8.73;95.87
13796;SHT30;40911;51.552;9.874;2023-02-21T08:42:52;8.72;96.21
13796;SHT30;40911;51.552;9.874;2023-02-21T08:45:15;8.73;96.37
13796;SHT30;40911;51.552;9.874;2023-02-21T08:47:37;8.76;96.30
13796;SHT30;40911;51.552;9.874;2023-02-21T08:49:59;8.76;96.50
13796;SHT30;40911;51.552;9.874;2023-02-21T08:52:20;8.77;96.59
13796;SHT30;40911;51.552;9.874;2023-02-21T08:54:42;8.79;96.58
13796;SHT30;40911;51.552;9.874;2023-02-21T08:57:06;8.89;96.40
13796;SHT30;40911;51.552;9.874;2023-02-21T08:59:27;8.95;96.32
13796;SHT30;40911;51.552;9.874;2023-02-21T09:01:52;8.93;96.33
13796;SHT30;40911;51.552;9.874;2023-02-21T09:04:14;8.96;96.42
13796;SHT30;40911;51.552;9.874;2023-02-21T09:06:36;8.90;96.39
13796;SHT30;40911;51.552;9.874;2023-02-21T09:08:57;8.79;96.56
13796;SHT30;40911;51.552;9.874;2023-02-21T09:11:19;8.77;96.81
13796;SHT30;40911;51.552;9.874;2023-02-21T09:13:42;8.80;96.89
13796;SHT30;40911;51.552;9.874;2023-02-21T09:16:04;8.83;96.69
13796;SHT30;40911;51.552;9.874;2023-02-21T09:18:27;8.88;96.83
13796;SHT30;40911;51.552;9.874;2023-02-21T09:20:50;8.80;96.96
13796;SHT30;40911;51.552;9.874;2023-02-21T09:23:13;8.86;96.80
13796;SHT30;40911;51.552;9.874;2023-02-21T09:25:37;8.85;96.85
13796;SHT30;40911;51.552;9.874;2023-02-21T09:27:58;8.90;96.85
13796;SHT30;40911;51.552;9.874;2023-02-21T09:30:23;8.92;96.98
13796;SHT30;40911;51.552;9.874;2023-02-21T09:32:46;8.97;96.88
13796;SHT30;40911;51.552;9.874;2023-02-21T09:35:08;8.99;96.91
13796;SHT30;40911;51.552;9.874;2023-02-21T09:37:36;9.16;96.91
13796;SHT30;40911;51.552;9.874;2023-02-21T09:39:58;9.07;96.39
13796;SHT30;40911;51.552;9.874;2023-02-21T09:42:23;9.16;96.61
13796;SHT30;40911;51.552;9.874;2023-02-21T09:44:46;9.14;96.35
13796;SHT30;40911;51.552;9.874;2023-02-21T09:47:23;9.13;96.42
13796;SHT30;40911;51.552;9.874;2023-02-21T09:49:46;9.26;96.30
13796;SHT30;40911;51.552;9.874;2023-02-21T09:52:14;9.24;95.98
13796;SHT30;40911;51.552;9.874;2023-02-21T09:54:43;9.32;95.97
13796;SHT30;40911;51.552;9.874;2023-02-21T09:57:11;9.49;95.94
13796;SHT30;40911;51.552;9.874;2023-02-21T09:59:34;9.62;95.79
13796;SHT30;40911;51.552;9.874;2023-02-21T10:02:18;9.55;95.36
13796;SHT30;40911;51.552;9.874;2023-02-21T10:04:54;9.54;95.09
13796;SHT30;40911;51.552;9.874;2023-02-21T10:07:21;9.68;94.78
13796;SHT30;40911;51.552;9.874;2023-02-21T10:09:51;9.93;94.71
13796;SHT30;40911;51.552;9.874;2023-02-21T10:12:20;9.78;93.82
13796;SHT30;40911;51.552;9.874;2023-02-21T10:15:07;9.89;93.67
13796;SHT30;40911;51.552;9.874;2023-02-21T10:17:35;9.93;93.44
13796;SHT30;40911;51.552;9.874;2023-02-21T10:20:02;9.92;93.18
13796;SHT30;40911;51.552;9.874;2023-02-21T10:22:27;10.13;93.93
13796;SHT30;40911;51.552;9.874;2023-02-21T10:24:52;9.85;93.00
13796;SHT30;40911;51.552;9.874;2023-02-21T10:27:17;9.90;93.09
13796;SHT30;40911;51.552;9.874;2023-02-21T10:29:44;9.95;93.37
13796;SHT30;40911;51.552;9.874;2023-02-21T10:32:07;10.06;93.31
13796;SHT30;40911;51.552;9.874;2023-02-21T10:34:31;10.09;92.69
13796;SHT30;40911;51.552;9.874;2023-02-21T10:36:55;10.12;92.70
13796;SHT30;40911;51.552;9.874;2023-02-21T10:39:20;10.06;92.67
13796;SHT30;40911;51.552;9.874;2023-02-21T10:41:42;10.13;92.40
13796;SHT30;40911;51.552;9.874;2023-02-21T10:44:09;10.16;92.64
13796;SHT30;40911;51.552;9.874;2023-02-21T10:46:36;10.37;92.70
13796;SHT30;40911;51.552;9.874;2023-02-21T10:49:16;10.24;91.77
13796;SHT30;40911;51.552;9.874;2023-02-21T10:51:40;10.27;91.72
13796;SHT30;40911;51.552;9.874;2023-02-21T10:54:20;10.41;91.35
13796;SHT30;40911;51.552;9.874;2023-02-21T10:56:42;10.54;91.44
13796;SHT30;40911;51.552;9.874;2023-02-21T10:59:05;10.44;90.93
13796;SHT30;40911;51.552;9.874;2023-02-21T11:01:34;10.52;91.76
13796;SHT30;40911;51.552;9.874;2023-02-21T11:03:58;10.38;91.73
13796;SHT30;40911;51.552;9.874;2023-02-21T11:06:23;10.31;91.62
13796;SHT30;40911;51.552;9.874;2023-02-21T11:08:46;10.40;91.94
13796;SHT30;40911;51.552;9.874;2023-02-21T11:11:10;10.41;91.55
13796;SHT30;40911;51.552;9.874;2023-02-21T11:13:33;10.42;91.04
13796;SHT30;40911;51.552;9.874;2023-02-21T11:16:08;10.42;91.02
13796;SHT30;40911;51.552;9.874;2023-02-21T11:18:30;10.48;91.02
13796;SHT30;40911;51.552;9.874;2023-02-21T11:20:52;10.45;90.94
13796;SHT30;40911;51.552;9.874;2023-02-21T11:23:20;10.57;91.32
13796;SHT30;40911;51.552;9.874;2023-02-21T11:25:42;10.52;91.09
13796;SHT30;40911;51.552;9.874;2023-02-21T11:28:17;10.55;91.04
13796;SHT30;40911;51.552;9.874;2023-02-21T11:30:44;10.62;91.11
13796;SHT30;40911;51.552;9.874;2023-02-21T11:33:08;10.62;90.90
13796;SHT30;40911;51.552;9.874;2023-02-21T11:35:32;10.65;90.58
13796;SHT30;40911;51.552;9.874;2023-02-21T11:37:58;10.82;90.20
13796;SHT30;40911;51.552;9.874;2023-02-21T11:40:27;10.85;89.88
13796;SHT30;40911;51.552;9.874;2023-02-21T11:43:10;10.76;89.75
13796;SHT30;40911;51.552;9.874;2023-02-21T11:45:33;10.89;89.78
13796;SHT30;40911;51.552;9.874;2023-02-21T11:48:00;10.89;89.49
13796;SHT30;40911;51.552;9.874;2023-02-21T11:50:25;10.76;89.79
13796;SHT30;40911;51.552;9.874;2023-02-21T11:52:51;10.95;89.74
13796;SHT30;40911;51.552;9.874;2023-02-21T11:55:17;10.88;89.72
13796;SHT30;40911;51.552;9.874;2023-02-21T11:57:45;10.91;89.29
13796;SHT30;40911;51.552;9.874;2023-02-21T12:00:16;10.95;89.41
13796;SHT30;40911;51.552;9.874;2023-02-21T12:02:52;10.99;89.70
13796;SHT30;40911;51.552;9.874;2023-02-21T12:05:30;10.93;89.02
13796;SHT30;40911;51.552;9.874;2023-02-21T12:08:04;10.99;89.26
13796;SHT30;40911;51.552;9.874;2023-02-21T12:10:41;11.14;88.80
13796;SHT30;40911;51.552;9.874;2023-02-21T12:13:09;11.19;88.64
13796;SHT30;40911;51.552;9.874;2023-02-21T12:15:46;11.36;88.39
13796;SHT30;40911;51.552;9.874;2023-02-21T12:18:29;11.22;88.14
13796;SHT30;40911;51.552;9.874;2023-02-21T12:21:11;11.17;88.49
13796;SHT30;40911;51.552;9.874;2023-02-21T12:23:42;11.36;88.60
13796;SHT30;40911;51.552;9.874;2023-02-21T12:26:18;11.37;87.91
13796;SHT30;40911;51.552;9.874;2023-02-21T12:28:55;11.46;87.97
13796;SHT30;40911;51.552;9.874;2023-02-21T12:31:31;11.24;88.12
13796;SHT30;40911;51.552;9.874;2023-02-21T12:34:04;11.51;87.78
13796;SHT30;40911;51.552;9.874;2023-02-21T12:36:35;11.58;87.78
13796;SHT30;40911;51.552;9.874;2023-02-21T12:39:11;11.37;87.37
13796;SHT30;40911;51.552;9.874;2023-02-21T12:41:50;11.44;87.35
13796;SHT30;40911;51.552;9.874;2023-02-21T12:44:18;11.52;87.07
13796;SHT30;40911;51.552;9.874;2023-02-21T12:46:45;11.62;87.27
13796;SHT30;40911;51.552;9.874;2023-02-21T12:49:13;11.52;87.38
13796;SHT30;40911;51.552;9.874;2023-02-21T12:51:39;11.48;87.11
13796;SHT30;40911;51.552;9.874;2023-02-21T12:54:05;11.17;87.49
13796;SHT30;40911;51.552;9.874;2023-02-21T12:56:32;11.31;87.91
13796;SHT30;40911;51.552;9.874;2023-02-21T12:58:58;11.33;87.53
13796;SHT30;40911;51.552;9.874;2023-02-21T13:01:25;11.51;87.07
13796;SHT30;40911;51.552;9.874;2023-02-21T13:03:54;11.27;86.93
13796;SHT30;40911;51.552;9.874;2023-02-21T13:06:24;11.50;87.49
13796;SHT30;40911;51.552;9.874;2023-02-21T13:08:55;11.36;87.30
13796;SHT30;40911;51.552;9.874;2023-02-21T13:11:21;11.37;87.43
13796;SHT30;40911;51.552;9.874;2023-02-21T13:13:46;11.33;87.39
13796;SHT30;40911;51.552;9.874;2023-02-21T13:16:09;11.23;86.61
13796;SHT30;40911;51.552;9.874;2023-02-21T13:18:35;11.37;87.26
13796;SHT30;40911;51.552;9.874;2023-02-21T13:21:04;11.44;87.19
13796;SHT30;40911;51.552;9.874;2023-02-21T13:26:54;11.37;87.13
13796;SHT30;40911;51.552;9.874;2023-02-21T13:29:21;11.28;87.07
13796;SHT30;40911;51.552;9.874;2023-02-21T13:31:43;11.16;87.11
13796;SHT30;40911;51.552;9.874;2023-02-21T13:34:07;11.22;87.21
13796;SHT30;40911;51.552;9.874;2023-02-21T13:36:40;11.17;87.45
13796;SHT30;40911;51.552;9.874;2023-02-21T13:39:11;11.14;87.58
13796;SHT30;40911;51.552;9.874;2023-02-21T13:41:36;11.10;87.56
13796;SHT30;40911;51.552;9.874;2023-02-21T13:44:00;11.16;87.66
13796;SHT30;40911;51.552;9.874;2023-02-21T13:49:36;11.10;87.80
13796;SHT30;40911;51.552;9.874;2023-02-21T13:52:49;11.04;87.78
13796;SHT30;40911;51.552;9.874;2023-02-21T13:55:29;11.10;87.89
13796;SHT30;40911;51.552;9.874;2023-02-21T13:58:27;11.00;87.74
13796;SHT30;40911;51.552;9.874;2023-02-21T14:00:52;11.03;87.96
13796;SHT30;40911;51.552;9.874;2023-02-21T14:03:30;10.97;87.44
13796;SHT30;40911;51.552;9.874;2023-02-21T14:06:24;11.00;87.97
13796;SHT30;40911;51.552;9.874;2023-02-21T14:08:53;10.95;87.72
13796;SHT30;40911;51.552;9.874;2023-02-21T14:11:19;10.88;87.82
13796;SHT30;40911;51.552;9.874;2023-02-21T14:13:46;11.02;87.71
13796;SHT30;40911;51.552;9.874;2023-02-21T14:16:16;11.04;87.72
13796;SHT30;40911;51.552;9.874;2023-02-21T14:18:41;11.10;87.95
13796;SHT30;40911;51.552;9.874;2023-02-21T14:21:08;11.02;87.78
13796;SHT30;40911;51.552;9.874;2023-02-21T14:23:37;11.10;87.88
13796;SHT30;40911;51.552;9.874;2023-02-21T14:26:03;11.04;87.77
13796;SHT30;40911;51.552;9.874;2023-02-21T14:29:01;10.92;87.85
13796;SHT30;40911;51.552;9.874;2023-02-21T14:31:50;10.99;87.70
13796;SHT30;40911;51.552;9.874;2023-02-21T14:34:14;10.97;87.88
13796;SHT30;40911;51.552;9.874;2023-02-21T14:36:38;10.91;88.02
13796;SHT30;40911;51.552;9.874;2023-02-21T14:39:01;10.86;87.67
13796;SHT30;40911;51.552;9.874;2023-02-21T14:41:35;10.86;87.79
13796;SHT30;40911;51.552;9.874;2023-02-21T14:44:18;10.83;87.84
13796;SHT30;40911;51.552;9.874;2023-02-21T14:49:56;10.76;87.99
13796;SHT30;40911;51.552;9.874;2023-02-21T14:55:32;10.72;88.14
13796;SHT30;40911;51.552;9.874;2023-02-21T15:01:04;10.81;88.48
13796;SHT30;40911;51.552;9.874;2023-02-21T15:03:29;10.68;88.47
13796;SHT30;40911;51.552;9.874;2023-02-21T15:05:57;10.68;88.62
13796;SHT30;40911;51.552;9.874;2023-02-21T15:08:22;10.62;88.75
13796;SHT30;40911;51.552;9.874;2023-02-21T15:10:45;10.62;88.80
13796;SHT30;40911;51.552;9.874;2023-02-21T15:13:20;10.60;88.81
13796;SHT30;40911;51.552;9.874;2023-02-21T15:15:42;10.65;89.18
13796;SHT30;40911;51.552;9.874;2023-02-21T15:18:07;10.64;89.02
13796;SHT30;40911;51.552;9.874;2023-02-21T15:20:30;10.62;89.22
13796;SHT30;40911;51.552;9.874;2023-02-21T15:22:58;10.62;89.43
13796;SHT30;40911;51.552;9.874;2023-02-21T15:25:21;10.52;89.44
13796;SHT30;40911;51.552;9.874;2023-02-21T15:28:02;10.51;89.36
13796;SHT30;40911;51.552;9.874;2023-02-21T15:30:26;10.55;89.61
13796;SHT30;40911;51.552;9.874;2023-02-21T15:32:58;10.49;89.69
13796;SHT30;40911;51.552;9.874;2023-02-21T15:35:25;10.47;89.82
13796;SHT30;40911;51.552;9.874;2023-02-21T15:37:48;10.48;89.72
13796;SHT30;40911;51.552;9.874;2023-02-21T15:40:12;10.47;89.80
13796;SHT30;40911;51.552;9.874;2023-02-21T15:42:34;10.49;89.87
13796;SHT30;40911;51.552;9.874;2023-02-21T15:44:57;10.47;89.76
13796;SHT30;40911;51.552;9.874;2023-02-21T15:47:21;10.44;89.87
13796;SHT30;40911;51.552;9.874;2023-02-21T15:49:52;10.36;89.93
13796;SHT30;40911;51.552;9.874;2023-02-21T15:52:33;10.33;89.96
13796;SHT30;40911;51.552;9.874;2023-02-21T15:55:13;10.38;90.31
13796;SHT30;40911;51.552;9.874;2023-02-21T15:57:34;10.34;89.98
13796;SHT30;40911;51.552;9.874;2023-02-21T16:00:18;10.33;90.22
13796;SHT30;40911;51.552;9.874;2023-02-21T16:02:40;10.27;90.11
13796;SHT30;40911;51.552;9.874;2023-02-21T16:05:02;10.26;90.19